Time;durP1;ratioP1;P1;durP2;ratioP2;P2;SDS_P1;SDS_P2;PMS_P1;PMS_P2;Temp;Humidity;BMP_temperature;BMP_pressure;BME280_temperature;BME280_humidity;BME280_pressure;Samples;Min_cycle;Max_cycle;Signal;HPM_P1;HPM_P2
2023/10/12 00:00:48;;;;;;;11.73;5.67;;;19.40;1.00;;;;;;5078518;28;20469;-58
2023/10/12 00:03:16;;;;;;;12.93;5.73;;;19.40;1.00;;;;;;5079011;28;20548;-58
2023/10/12 00:05:45;;;;;;;10.07;6.33;;;19.30;1.00;;;;;;5079106;28;20858;-58
2023/10/12 00:08:29;;;;;;;20.03;6.40;;;19.30;1.00;;;;;;5078595;28;20457;-58
2023/10/12 00:10:57;;;;;;;12.87;8.00;;;19.30;1.00;;;;;;5078467;28;20469;-58
2023/10/12 00:13:29;;;;;;;15.80;6.70;;;19.30;1.00;;;;;;5078690;28;20823;-57
2023/10/12 00:15:58;;;;;;;10.13;5.40;;;19.30;1.00;;;;;;5079074;28;20519;-57
2023/10/12 00:18:25;;;;;;;18.67;7.10;;;19.30;1.00;;;;;;5078668;28;20493;-58
2023/10/12 00:20:54;;;;;;;9.03;5.40;;;19.30;1.00;;;;;;5078822;28;20944;-58
2023/10/12 00:23:21;;;;;;;10.37;5.70;;;19.30;1.00;;;;;;5078346;28;20468;-58
2023/10/12 00:25:54;;;;;;;15.30;6.63;;;19.30;1.00;;;;;;5078562;28;20772;-58
2023/10/12 00:28:23;;;;;;;13.33;5.57;;;19.30;1.00;;;;;;5078870;28;20538;-58
2023/10/12 00:30:54;;;;;;;9.17;5.53;;;19.20;1.00;;;;;;5077902;28;20457;-57
2023/10/12 00:33:23;;;;;;;12.37;5.47;;;19.20;1.00;;;;;;5077954;28;20493;-58
2023/10/12 00:35:52;;;;;;;13.03;5.53;;;19.20;1.00;;;;;;5078086;28;20560;-59
2023/10/12 00:38:23;;;;;;;10.23;5.60;;;19.20;1.00;;;;;;5078528;28;20591;-57
2023/10/12 00:40:55;;;;;;;8.43;6.40;;;19.10;62.60;;;;;;5077734;28;20468;-58
2023/10/12 00:43:24;;;;;;;12.13;5.70;;;19.00;99.90;;;;;;5078344;28;20461;-58
2023/10/12 00:45:53;;;;;;;10.53;5.40;;;18.80;99.90;;;;;;5077649;28;20920;-57
2023/10/12 00:48:28;;;;;;;9.90;6.07;;;18.70;1.00;;;;;;5077955;28;20547;-58
2023/10/12 00:50:56;;;;;;;12.03;7.13;;;18.70;1.00;;;;;;5077583;28;20564;-58
2023/10/12 00:53:31;;;;;;;13.33;7.03;;;18.60;1.00;;;;;;5077706;28;20548;-57
2023/10/12 00:56:01;;;;;;;9.50;6.70;;;18.50;1.00;;;;;;5077786;28;20467;-56
2023/10/12 00:58:30;;;;;;;14.67;7.40;;;18.40;27.40;;;;;;5077743;28;20773;-55
2023/10/12 01:01:03;;;;;;;12.63;7.10;;;18.30;99.90;;;;;;5077027;28;20461;-57
2023/10/12 01:03:35;;;;;;;11.30;6.60;;;18.30;99.90;;;;;;5077754;28;20564;-56
2023/10/12 01:06:15;;;;;;;13.40;7.20;;;18.20;99.90;;;;;;5077085;28;20461;-55
2023/10/12 01:08:46;;;;;;;12.20;7.23;;;18.20;99.90;;;;;;5077117;28;20481;-57
2023/10/12 01:11:19;;;;;;;11.53;6.50;;;18.10;99.90;;;;;;5077317;28;20492;-56
2023/10/12 01:13:48;;;;;;;11.00;6.37;;;18.10;99.90;;;;;;5077226;28;20461;-57
2023/10/12 01:16:22;;;;;;;27.00;7.67;;;18.00;99.90;;;;;;5077433;28;20457;-56
2023/10/12 01:19:39;;;;;;;17.37;7.90;;;18.10;99.90;;;;;;5077169;28;20496;-57
2023/10/12 01:22:12;;;;;;;10.93;6.40;;;18.00;99.90;;;;;;5077351;28;20480;-56
2023/10/12 01:24:44;;;;;;;8.40;6.53;;;17.90;99.90;;;;;;5076997;28;20505;-56
2023/10/12 01:27:14;;;;;;;10.37;6.70;;;17.80;99.90;;;;;;5076938;28;20462;-57
2023/10/12 01:29:42;;;;;;;23.00;7.47;;;17.90;99.90;;;;;;5077288;28;20470;-58
2023/10/12 01:32:24;;;;;;;10.37;7.27;;;17.80;99.90;;;;;;5076225;28;20464;-56
2023/10/12 01:34:55;;;;;;;11.23;7.20;;;17.80;99.90;;;;;;5076555;28;20499;-56
2023/10/12 01:37:25;;;;;;;9.87;6.30;;;17.80;99.90;;;;;;5077552;28;20461;-57
2023/10/12 01:39:58;;;;;;;11.63;6.90;;;17.90;94.60;;;;;;5077058;28;20485;-56
2023/10/12 01:42:35;;;;;;;12.00;6.70;;;17.80;99.90;;;;;;5077485;28;20530;-58
2023/10/12 01:45:06;;;;;;;8.37;6.13;;;17.80;99.90;;;;;;5077015;28;20440;-57
2023/10/12 01:47:37;;;;;;;11.77;6.30;;;17.80;99.90;;;;;;5076805;28;20468;-58
2023/10/12 01:50:07;;;;;;;8.37;6.30;;;17.80;99.90;;;;;;5077452;28;20831;-58
2023/10/12 01:52:35;;;;;;;10.40;5.93;;;17.70;99.90;;;;;;5076712;28;20908;-57
2023/10/12 01:55:15;;;;;;;11.27;7.17;;;17.70;99.90;;;;;;5076852;28;20457;-59
2023/10/12 01:57:50;;;;;;;8.10;6.80;;;17.60;99.90;;;;;;5078040;28;20456;-61
2023/10/12 02:00:24;;;;;;;14.17;6.77;;;17.50;99.90;;;;;;5081448;28;20929;-61
2023/10/12 02:03:00;;;;;;;14.33;6.97;;;17.50;99.90;;;;;;5080869;28;20453;-61
2023/10/12 02:05:30;;;;;;;16.00;7.27;;;17.40;99.90;;;;;;5080959;28;20977;-60
2023/10/12 02:08:05;;;;;;;9.97;7.00;;;17.30;99.90;;;;;;5080917;28;20427;-60
2023/10/12 02:10:41;;;;;;;11.23;8.10;;;17.30;1.00;;;;;;5080346;28;20602;-59
2023/10/12 02:13:10;;;;;;;12.40;7.40;;;17.20;1.00;;;;;;5080742;28;20839;-60
2023/10/12 02:15:38;;;;;;;13.23;7.50;;;17.10;1.00;;;;;;5061429;28;20444;-58
2023/10/12 02:18:15;;;;;;;13.17;7.73;;;17.00;1.00;;;;;;5060440;28;20469;-61
2023/10/12 02:20:59;;;;;;;15.93;8.43;;;16.90;22.20;;;;;;5060175;28;20480;-58
2023/10/12 02:23:32;;;;;;;12.53;7.77;;;16.70;93.70;;;;;;5060169;28;20465;-58
2023/10/12 02:26:07;;;;;;;12.30;8.10;;;16.70;99.90;;;;;;5060912;28;20486;-58
2023/10/12 02:28:38;;;;;;;10.87;8.47;;;16.60;99.90;;;;;;5060285;28;20911;-58
2023/10/12 02:31:05;;;;;;;10.50;8.30;;;16.40;99.90;;;;;;5060356;28;20557;-58
2023/10/12 02:33:37;;;;;;;11.90;8.53;;;16.40;99.90;;;;;;5060147;28;20751;-59
2023/10/12 02:36:09;;;;;;;10.30;8.40;;;16.40;99.90;;;;;;5060640;28;20883;-59
2023/10/12 02:38:38;;;;;;;18.13;8.97;;;16.30;99.90;;;;;;5060418;28;21037;-60
2023/10/12 02:41:12;;;;;;;13.30;8.63;;;16.20;1.00;;;;;;5060266;28;20462;-58
2023/10/12 02:43:42;;;;;;;14.20;9.87;;;16.20;99.90;;;;;;5060149;28;20464;-59
2023/10/12 02:46:21;;;;;;;9.67;8.77;;;16.20;1.00;;;;;;5060458;28;20458;-59
2023/10/12 02:48:50;;;;;;;12.80;9.27;;;16.10;1.00;;;;;;5060092;28;20468;-59
2023/10/12 02:51:18;;;;;;;9.40;7.80;;;16.10;1.00;;;;;;5059955;28;20469;-59
2023/10/12 02:53:47;;;;;;;12.50;9.97;;;16.10;1.00;;;;;;5060025;28;20458;-62
2023/10/12 02:56:21;;;;;;;12.53;9.17;;;16.00;1.00;;;;;;5060409;28;20569;-62
2023/10/12 02:58:49;;;;;;;12.73;9.13;;;16.00;1.00;;;;;;5059556;28;20501;-62
2023/10/12 03:01:19;;;;;;;13.47;9.23;;;15.90;1.00;;;;;;5059636;28;20520;-63
2023/10/12 03:03:50;;;;;;;11.63;9.83;;;15.90;1.00;;;;;;5059920;28;20462;-63
2023/10/12 03:06:24;;;;;;;14.03;9.80;;;15.90;1.00;;;;;;5060228;28;20967;-64
2023/10/12 03:09:13;;;;;;;11.97;10.87;;;15.90;1.00;;;;;;5059186;28;20815;-63
2023/10/12 03:11:42;;;;;;;21.77;11.00;;;15.90;1.00;;;;;;5059918;28;20462;-61
2023/10/12 03:14:15;;;;;;;12.07;9.80;;;15.90;1.00;;;;;;5060016;28;20477;-61
2023/10/12 03:16:44;;;;;;;16.67;11.00;;;15.80;1.00;;;;;;5058989;28;20469;-61
2023/10/12 03:19:23;;;;;;;16.40;12.03;;;15.90;1.00;;;;;;5059008;28;20544;-61
2023/10/12 03:21:51;;;;;;;17.03;12.10;;;15.80;1.00;;;;;;5059869;28;20872;-62
2023/10/12 03:24:22;;;;;;;12.10;10.77;;;15.80;1.00;;;;;;5059831;28;20466;-62
2023/10/12 03:27:10;;;;;;;15.10;10.40;;;15.80;1.00;;;;;;5059395;28;20879;-61
2023/10/12 03:29:43;;;;;;;19.20;11.37;;;15.70;1.00;;;;;;5059740;28;20480;-62
2023/10/12 03:32:11;;;;;;;22.00;10.40;;;15.70;1.00;;;;;;5059787;28;20553;-62
2023/10/12 03:34:53;;;;;;;11.63;10.43;;;15.70;1.00;;;;;;5058964;28;20466;-63
2023/10/12 03:37:40;;;;;;;16.53;11.33;;;15.70;1.00;;;;;;5059652;28;20465;-61
2023/10/12 03:42:53;;;;;;;14.80;11.87;;;15.70;1.00;;;;;;5058615;28;20444;-62
2023/10/12 03:45:33;;;;;;;18.80;11.50;;;15.70;1.00;;;;;;5058905;28;20464;-61
2023/10/12 03:53:45;;;;;;;16.97;12.03;;;15.50;1.00;;;;;;5054257;28;20450;-62
2023/10/12 03:56:16;;;;;;;15.50;13.30;;;15.60;1.00;;;;;;5059113;28;20527;-60
2023/10/12 03:58:47;;;;;;;18.70;12.07;;;15.60;1.00;;;;;;5058669;28;20764;-59
2023/10/12 04:01:23;;;;;;;14.60;12.53;;;15.60;1.00;;;;;;5059185;28;20462;-59
2023/10/12 04:03:58;;;;;;;21.73;11.97;;;15.50;1.00;;;;;;5058855;28;20561;-60
2023/10/12 04:06:46;;;;;;;14.23;10.70;;;15.60;1.00;;;;;;5058410;28;20468;-59
2023/10/12 04:09:20;;;;;;;12.90;11.10;;;15.50;1.00;;;;;;5058340;28;20566;-58
2023/10/12 04:11:50;;;;;;;14.03;11.93;;;15.50;8.50;;;;;;5058809;28;20508;-59
2023/10/12 04:14:44;;;;;;;17.90;12.07;;;15.40;99.90;;;;;;5058661;28;20466;-59
2023/10/12 04:17:18;;;;;;;14.63;11.73;;;15.50;99.90;;;;;;5058443;28;20469;-59
2023/10/12 04:20:00;;;;;;;16.47;11.50;;;15.40;99.90;;;;;;5058290;28;20953;-59
2023/10/12 04:22:35;;;;;;;13.43;11.17;;;15.40;99.90;;;;;;5058769;28;20458;-59
2023/10/12 04:25:12;;;;;;;14.50;12.43;;;15.40;99.90;;;;;;5058316;28;20515;-59
2023/10/12 04:27:50;;;;;;;15.73;12.30;;;15.40;99.90;;;;;;5058427;28;20466;-60
2023/10/12 04:30:28;;;;;;;16.50;12.27;;;15.40;99.90;;;;;;5058646;28;20945;-60
2023/10/12 04:33:11;;;;;;;14.70;11.33;;;15.40;99.90;;;;;;5058317;28;20469;-60
2023/10/12 04:36:09;;;;;;;15.40;12.30;;;15.40;99.90;;;;;;5058311;28;20511;-60
2023/10/12 04:38:56;;;;;;;19.97;11.30;;;15.50;99.90;;;;;;5058191;28;20557;-58
2023/10/12 04:41:26;;;;;;;17.63;11.90;;;15.50;99.90;;;;;;5058186;28;20761;-58
2023/10/12 04:44:06;;;;;;;17.47;12.90;;;15.40;99.90;;;;;;5058447;28;20740;-58
2023/10/12 04:46:47;;;;;;;15.40;12.20;;;15.50;1.00;;;;;;5057836;28;20466;-58
2023/10/12 04:52:09;;;;;;;13.80;12.10;;;15.40;1.00;;;;;;5057317;28;20528;-59
2023/10/12 04:54:49;;;;;;;16.60;13.10;;;15.30;1.00;;;;;;5057639;28;20462;-58
2023/10/12 04:57:16;;;;;;;18.73;12.20;;;15.30;1.00;;;;;;5069273;28;20460;-59
2023/10/12 04:59:50;;;;;;;15.90;13.10;;;15.30;12.30;;;;;;5077587;28;20485;-58
2023/10/12 05:02:28;;;;;;;14.23;11.73;;;15.40;99.90;;;;;;5077777;28;20466;-59
2023/10/12 05:07:53;;;;;;;18.03;12.70;;;15.40;99.90;;;;;;5075526;28;20438;-58
2023/10/12 05:10:26;;;;;;;15.90;12.80;;;15.40;99.90;;;;;;5077173;28;20485;-58
2023/10/12 05:13:03;;;;;;;15.47;13.33;;;15.30;99.90;;;;;;5074070;28;20473;-58
2023/10/12 05:15:39;;;;;;;15.00;12.27;;;15.30;99.90;;;;;;5066955;28;20522;-59
2023/10/12 05:18:07;;;;;;;17.40;11.63;;;15.30;99.90;;;;;;5077283;28;20457;-60
2023/10/12 05:20:34;;;;;;;19.40;12.77;;;15.30;99.90;;;;;;5076878;28;20610;-59
2023/10/12 05:23:04;;;;;;;16.00;12.37;;;15.30;99.90;;;;;;5077470;28;20493;-59
2023/10/12 05:25:48;;;;;;;16.00;11.93;;;15.30;99.90;;;;;;5077299;28;20457;-59
2023/10/12 05:28:15;;;;;;;15.13;11.60;;;15.20;99.90;;;;;;5076819;28;20457;-59
2023/10/12 05:30:48;;;;;;;16.27;11.53;;;15.20;99.90;;;;;;5076274;28;20916;-59
2023/10/12 05:33:37;;;;;;;13.37;11.40;;;15.10;74.60;;;;;;5077154;28;20461;-59
2023/10/12 05:36:08;;;;;;;17.00;11.73;;;15.20;87.60;;;;;;5077711;28;20469;-59
2023/10/12 05:38:37;;;;;;;15.43;11.70;;;15.20;66.50;;;;;;5077272;28;20487;-59
2023/10/12 05:41:08;;;;;;;15.23;11.40;;;15.20;99.40;;;;;;5073401;28;20497;-59
2023/10/12 05:43:36;;;;;;;15.07;12.10;;;15.30;99.90;;;;;;5068185;28;20568;-62
2023/10/12 05:46:10;;;;;;;16.97;12.60;;;15.30;91.50;;;;;;5057164;28;20493;-62
2023/10/12 05:48:41;;;;;;;16.00;11.83;;;15.30;12.20;;;;;;5056743;28;20919;-61
2023/10/12 05:51:10;;;;;;;15.73;12.37;;;15.30;45.00;;;;;;5056366;28;20520;-61
2023/10/12 05:53:39;;;;;;;17.60;13.40;;;15.20;49.30;;;;;;5057099;28;20757;-61
2023/10/12 05:56:07;;;;;;;15.80;12.10;;;15.20;74.10;;;;;;5056935;28;20458;-62
2023/10/12 05:58:38;;;;;;;18.83;12.27;;;15.30;97.00;;;;;;5056898;28;20462;-61
2023/10/12 06:01:09;;;;;;;17.63;14.00;;;15.20;25.80;;;;;;5057138;28;20530;-60
2023/10/12 06:03:40;;;;;;;17.30;13.17;;;15.20;99.90;;;;;;5057354;28;20636;-60
2023/10/12 06:06:09;;;;;;;18.37;13.30;;;15.10;99.90;;;;;;5056575;28;20520;-61
2023/10/12 06:08:37;;;;;;;16.57;13.30;;;15.10;99.90;;;;;;5066780;28;20485;-61
2023/10/12 06:11:10;;;;;;;18.10;13.37;;;15.20;99.90;;;;;;5075285;28;20655;-60
2023/10/12 06:13:42;;;;;;;15.53;13.50;;;15.20;99.90;;;;;;5075190;28;20458;-60
2023/10/12 06:16:17;;;;;;;16.70;13.20;;;15.20;99.90;;;;;;5074987;28;20559;-60
2023/10/12 06:18:45;;;;;;;17.00;13.83;;;15.20;99.90;;;;;;5074379;28;20566;-60
2023/10/12 06:21:17;;;;;;;17.97;13.07;;;15.30;99.90;;;;;;5074745;28;20504;-60
2023/10/12 06:23:48;;;;;;;17.87;13.50;;;15.20;99.90;;;;;;5074686;28;20468;-60
2023/10/12 06:26:28;;;;;;;15.53;13.30;;;15.20;99.90;;;;;;5074515;28;20496;-60
2023/10/12 06:28:57;;;;;;;17.77;13.70;;;15.20;99.90;;;;;;5074994;28;20457;-60
2023/10/12 06:31:29;;;;;;;19.83;14.57;;;15.30;99.90;;;;;;5075295;28;20476;-60
2023/10/12 06:33:59;;;;;;;19.93;14.90;;;15.20;99.90;;;;;;5075154;28;20461;-61
2023/10/12 06:36:38;;;;;;;15.77;13.90;;;15.20;99.90;;;;;;5075126;28;20473;-59
2023/10/12 06:42:09;;;;;;;19.40;14.17;;;15.30;99.90;;;;;;5076012;28;20437;-59
2023/10/12 06:44:35;;;;;;;21.03;15.40;;;15.20;99.90;;;;;;5078793;28;20463;-60
2023/10/12 06:47:28;;;;;;;19.03;15.13;;;15.20;99.90;;;;;;5080786;28;20728;-60
2023/10/12 06:50:00;;;;;;;21.77;13.87;;;15.10;99.90;;;;;;5079929;28;20902;-59
2023/10/12 06:52:26;;;;;;;18.40;13.90;;;15.10;99.90;;;;;;5079262;28;20510;-59
2023/10/12 06:54:59;;;;;;;18.90;15.17;;;15.10;99.90;;;;;;5078441;28;20463;-60
2023/10/12 06:57:36;;;;;;;23.10;14.53;;;15.20;99.90;;;;;;5078517;28;20465;-60
2023/10/12 07:00:33;;;;;;;19.07;14.83;;;15.20;99.90;;;;;;5078837;28;20606;-60
2023/10/12 07:03:08;;;;;;;23.40;14.57;;;15.20;99.90;;;;;;5078749;28;20930;-61
2023/10/12 07:05:38;;;;;;;17.90;13.40;;;15.20;99.90;;;;;;5077909;28;20888;-60
2023/10/12 07:08:15;;;;;;;19.10;14.13;;;15.20;99.90;;;;;;5077781;28;20806;-60
2023/10/12 07:10:58;;;;;;;17.03;14.57;;;15.20;99.90;;;;;;5079551;28;20521;-60
2023/10/12 07:13:26;;;;;;;18.03;15.27;;;15.20;99.90;;;;;;5078685;28;20460;-60
2023/10/12 07:15:54;;;;;;;18.83;14.60;;;15.20;99.90;;;;;;5078354;28;20462;-60
2023/10/12 07:18:23;;;;;;;18.43;13.53;;;15.20;99.90;;;;;;5078222;28;20860;-60
2023/10/12 07:20:50;;;;;;;20.07;13.30;;;15.30;99.90;;;;;;5078044;28;20500;-60
2023/10/12 07:23:19;;;;;;;17.83;13.50;;;15.30;99.90;;;;;;5077930;28;20529;-61
2023/10/12 07:25:51;;;;;;;16.87;14.10;;;15.30;99.90;;;;;;5078537;28;20555;-60
2023/10/12 07:28:32;;;;;;;19.53;13.17;;;15.40;99.90;;;;;;5071275;28;20540;-59
2023/10/12 07:31:23;;;;;;;19.00;15.03;;;15.40;99.90;;;;;;5058251;28;20819;-60
2023/10/12 07:34:01;;;;;;;16.67;14.90;;;15.30;99.90;;;;;;5057957;28;20914;-60
2023/10/12 07:36:45;;;;;;;22.50;17.23;;;15.30;99.90;;;;;;5058358;28;20454;-59
2023/10/12 07:39:17;;;;;;;19.93;14.83;;;15.40;99.90;;;;;;5058338;28;20741;-61
2023/10/12 07:41:53;;;;;;;17.40;14.30;;;15.30;99.90;;;;;;5057720;28;20778;-61
2023/10/12 07:44:22;;;;;;;16.10;13.97;;;15.40;99.90;;;;;;5058460;28;20519;-61
2023/10/12 07:46:49;;;;;;;17.43;13.63;;;15.30;99.90;;;;;;5064722;28;20461;-61
2023/10/12 07:49:37;;;;;;;15.53;13.80;;;15.40;99.90;;;;;;5077341;28;20449;-61
2023/10/12 07:52:09;;;;;;;16.93;12.07;;;15.30;99.90;;;;;;5076267;28;20539;-61
2023/10/12 07:54:57;;;;;;;18.00;13.33;;;15.30;99.90;;;;;;5075051;28;20769;-62
2023/10/12 07:57:29;;;;;;;16.10;13.63;;;15.40;99.90;;;;;;5076184;28;20461;-61
2023/10/12 08:00:24;;;;;;;15.03;13.40;;;15.40;99.90;;;;;;5075859;28;20485;-61
2023/10/12 08:03:17;;;;;;;15.90;13.30;;;15.50;99.90;;;;;;5076459;28;20545;-61
2023/10/12 08:05:58;;;;;;;20.20;14.03;;;15.50;99.90;;;;;;5077152;28;20457;-61
2023/10/12 08:08:35;;;;;;;19.33;12.90;;;15.40;99.90;;;;;;5076897;28;20489;-61
2023/10/12 08:11:10;;;;;;;15.53;13.43;;;15.40;99.90;;;;;;5076749;28;20453;-61
2023/10/12 08:13:47;;;;;;;22.77;13.10;;;15.50;99.90;;;;;;5077685;28;20465;-61
2023/10/12 08:16:17;;;;;;;16.30;13.23;;;15.50;99.90;;;;;;5076041;28;20462;-61
2023/10/12 08:21:38;;;;;;;16.10;12.33;;;15.50;99.90;;;;;;5076860;28;20477;-61
2023/10/12 08:24:09;;;;;;;14.90;12.63;;;15.50;99.90;;;;;;5076773;28;20467;-61
2023/10/12 08:26:49;;;;;;;15.80;12.50;;;15.50;99.90;;;;;;5076093;28;20493;-61
2023/10/12 08:30:10;;;;;;;16.00;11.90;;;15.60;99.90;;;;;;5076874;28;20465;-61
2023/10/12 08:32:27;;;;;;;16.30;12.90;;;15.60;99.90;;;;;;5077411;28;20453;-61
2023/10/12 08:35:35;;;;;;;15.97;11.80;;;15.60;99.90;;;;;;5078493;28;20488;-61
2023/10/12 08:38:11;;;;;;;16.90;12.77;;;15.70;99.90;;;;;;5076919;28;20460;-61
2023/10/12 08:43:43;;;;;;;15.23;11.97;;;15.70;92.20;;;;;;5056686;28;20493;-62
2023/10/12 08:46:20;;;;;;;17.57;12.50;;;15.70;18.60;;;;;;5057914;28;20466;-62
2023/10/12 08:48:52;;;;;;;16.10;11.63;;;15.70;15.60;;;;;;5057487;28;20469;-61
2023/10/12 08:51:29;;;;;;;16.20;11.53;;;15.60;1.00;;;;;;5057401;28;20544;-62
2023/10/12 08:54:01;;;;;;;14.20;11.43;;;15.70;1.00;;;;;;5058339;28;20466;-62
2023/10/12 08:56:32;;;;;;;21.10;11.60;;;15.70;54.70;;;;;;5058242;28;20945;-61
2023/10/12 08:59:07;;;;;;;13.80;10.20;;;15.70;99.90;;;;;;5057602;28;20471;-62
2023/10/12 09:01:39;;;;;;;18.87;11.73;;;15.80;99.90;;;;;;5057333;28;20493;-61
2023/10/12 09:04:12;;;;;;;17.13;12.20;;;15.80;99.50;;;;;;5057973;28;20547;-62
2023/10/12 09:06:56;;;;;;;17.43;11.13;;;15.70;1.00;;;;;;5057019;28;20462;-62
2023/10/12 09:12:13;;;;;;;18.20;12.20;;;15.80;83.50;;;;;;5057528;28;20417;-62
2023/10/12 09:14:44;;;;;;;14.27;10.70;;;15.90;99.90;;;;;;5057333;28;20516;-63
2023/10/12 09:17:27;;;;;;;13.90;10.80;;;16.00;42.00;;;;;;5057331;28;20468;-62
2023/10/12 09:20:09;;;;;;;19.43;11.77;;;16.00;1.00;;;;;;5057631;28;20490;-62
2023/10/12 09:22:38;;;;;;;17.40;12.00;;;16.00;1.00;;;;;;5057018;28;20465;-62
2023/10/12 09:25:23;;;;;;;14.90;11.43;;;16.00;1.00;;;;;;5057288;28;20543;-62
2023/10/12 09:27:50;;;;;;;17.23;11.77;;;16.10;1.00;;;;;;5057002;28;20492;-61
2023/10/12 09:30:25;;;;;;;14.50;10.83;;;16.20;1.00;;;;;;5057431;28;20454;-62
2023/10/12 09:33:05;;;;;;;14.60;11.03;;;16.10;99.90;;;;;;5056780;28;20468;-62
2023/10/12 09:35:40;;;;;;;16.03;11.83;;;16.20;99.90;;;;;;5056959;28;20560;-62
2023/10/12 09:38:08;;;;;;;18.47;12.57;;;16.20;99.90;;;;;;5057532;28;20510;-62
2023/10/12 09:40:40;;;;;;;14.40;10.63;;;16.20;99.90;;;;;;5060994;28;20493;-62
2023/10/12 09:43:12;;;;;;;17.20;12.10;;;16.20;99.90;;;;;;5076891;28;20465;-62
2023/10/12 09:45:45;;;;;;;18.77;11.40;;;16.30;99.90;;;;;;5074846;28;20528;-62
2023/10/12 09:48:24;;;;;;;19.63;12.97;;;16.40;99.90;;;;;;5076260;28;20830;-62
2023/10/12 09:50:53;;;;;;;17.57;12.30;;;16.50;99.90;;;;;;5076725;28;20460;-62
2023/10/12 09:53:26;;;;;;;14.77;10.10;;;16.50;99.90;;;;;;5076448;28;20483;-63
2023/10/12 09:56:10;;;;;;;13.87;10.87;;;16.60;99.90;;;;;;5076630;28;20461;-62
2023/10/12 09:58:45;;;;;;;17.00;10.73;;;16.60;99.90;;;;;;5076808;28;20798;-62
2023/10/12 10:01:16;;;;;;;12.70;11.00;;;16.80;99.90;;;;;;5076890;28;20489;-63
2023/10/12 10:03:49;;;;;;;16.13;12.30;;;16.90;99.90;;;;;;5077172;28;20515;-63
2023/10/12 10:06:28;;;;;;;16.37;10.40;;;16.90;1.00;;;;;;5076735;28;20527;-63
2023/10/12 10:09:23;;;;;;;15.00;11.30;;;17.00;1.00;;;;;;5073885;28;20517;-63
2023/10/12 10:11:59;;;;;;;13.30;10.80;;;16.90;1.00;;;;;;5075506;28;20469;-63
2023/10/12 10:14:34;;;;;;;13.67;11.00;;;16.90;1.00;;;;;;5075096;28;20515;-62
2023/10/12 10:17:01;;;;;;;14.17;10.47;;;16.90;1.00;;;;;;5076055;28;20448;-63
2023/10/12 10:19:32;;;;;;;14.40;10.53;;;16.90;1.00;;;;;;5078347;28;20493;-63
2023/10/12 10:22:10;;;;;;;15.63;9.90;;;17.00;1.00;;;;;;5080286;28;20489;-63
2023/10/12 10:24:54;;;;;;;12.20;10.10;;;17.10;1.00;;;;;;5080490;28;20461;-63
2023/10/12 10:27:34;;;;;;;12.80;10.73;;;17.20;1.00;;;;;;5080798;28;20461;-63
2023/10/12 10:30:24;;;;;;;12.40;9.90;;;17.40;1.00;;;;;;5078489;28;20468;-63
2023/10/12 10:33:09;;;;;;;16.50;10.30;;;17.70;1.00;;;;;;5079367;28;20759;-63
2023/10/12 10:35:56;;;;;;;17.63;10.37;;;18.10;1.00;;;;;;5080818;28;20739;-65
2023/10/12 10:38:25;;;;;;;14.27;9.90;;;18.40;99.90;;;;;;5079681;28;20753;-65
2023/10/12 10:41:05;;;;;;;14.13;10.00;;;18.70;99.90;;;;;;5080134;28;20532;-64
2023/10/12 10:43:37;;;;;;;12.70;9.17;;;19.00;99.90;;;;;;5080500;28;20467;-63
2023/10/12 10:46:06;;;;;;;14.30;10.67;;;19.00;99.90;;;;;;5080795;28;20461;-63
2023/10/12 10:48:36;;;;;;;11.77;9.37;;;19.20;99.90;;;;;;5080041;28;20468;-63
2023/10/12 10:51:07;;;;;;;12.77;10.73;;;19.10;74.50;;;;;;5080414;28;20552;-63
2023/10/12 10:53:38;;;;;;;11.63;9.70;;;19.10;17.20;;;;;;5080477;28;20761;-64
2023/10/12 10:56:13;;;;;;;13.47;9.67;;;19.10;79.50;;;;;;5080613;28;20938;-63
2023/10/12 10:58:45;;;;;;;11.47;10.27;;;19.00;64.80;;;;;;5079813;28;20517;-63
2023/10/12 11:01:14;;;;;;;13.80;10.47;;;19.00;99.90;;;;;;5079907;28;20956;-63
2023/10/12 11:03:41;;;;;;;13.73;11.03;;;18.90;51.40;;;;;;5079967;28;20964;-63
2023/10/12 11:06:21;;;;;;;12.03;10.07;;;18.90;97.30;;;;;;5079934;28;20469;-63
2023/10/12 11:09:04;;;;;;;13.70;10.97;;;18.80;99.90;;;;;;5079816;28;20889;-64
2023/10/12 11:11:38;;;;;;;12.87;11.53;;;18.50;92.90;;;;;;5079740;28;20457;-63
2023/10/12 11:14:08;;;;;;;14.10;9.67;;;18.50;99.90;;;;;;5080284;28;20894;-64
2023/10/12 11:16:37;;;;;;;13.40;10.60;;;18.50;99.90;;;;;;5080026;28;20769;-63
2023/10/12 11:19:08;;;;;;;13.33;11.17;;;18.50;99.90;;;;;;5079414;28;20435;-63
2023/10/12 11:21:36;;;;;;;17.13;11.10;;;18.50;99.90;;;;;;5079665;28;20591;-64
2023/10/12 11:24:09;;;;;;;16.83;11.97;;;18.40;99.90;;;;;;5079665;28;20462;-64
2023/10/12 11:26:51;;;;;;;13.47;11.30;;;18.30;99.90;;;;;;5079459;28;20457;-63
2023/10/12 11:29:20;;;;;;;13.67;11.27;;;18.20;99.90;;;;;;5079268;28;20552;-62
2023/10/12 11:32:08;;;;;;;13.50;10.90;;;18.20;99.90;;;;;;5079483;28;20453;-62
2023/10/12 11:34:36;;;;;;;14.47;10.43;;;18.20;99.90;;;;;;5078865;28;20457;-62
2023/10/12 11:37:04;;;;;;;17.60;10.50;;;18.30;99.90;;;;;;5079076;28;20551;-62
2023/10/12 11:39:42;;;;;;;12.27;10.40;;;18.30;99.90;;;;;;5079232;28;20453;-62
2023/10/12 11:42:12;;;;;;;13.80;10.53;;;18.50;99.90;;;;;;5079621;28;20542;-61
2023/10/12 11:44:43;;;;;;;15.53;10.60;;;18.50;99.90;;;;;;5078751;28;20516;-62
2023/10/12 11:47:13;;;;;;;12.97;11.57;;;18.60;99.90;;;;;;5078980;28;20464;-62
2023/10/12 11:49:55;;;;;;;15.37;10.47;;;18.50;99.90;;;;;;5079090;28;20879;-62
2023/10/12 11:52:29;;;;;;;14.17;10.50;;;18.50;99.90;;;;;;5079579;28;20778;-62
2023/10/12 11:55:06;;;;;;;13.50;10.20;;;18.30;99.90;;;;;;5078708;28;20765;-62
2023/10/12 11:57:36;;;;;;;11.97;9.80;;;18.20;99.90;;;;;;5078943;28;20461;-62
2023/10/12 12:00:21;;;;;;;13.90;10.13;;;18.20;99.90;;;;;;5079169;28;20504;-62
2023/10/12 12:02:50;;;;;;;14.93;11.17;;;18.10;99.90;;;;;;5078608;28;20567;-62
2023/10/12 12:05:21;;;;;;;12.53;9.70;;;18.10;99.90;;;;;;5078697;28;20489;-62
2023/10/12 12:07:51;;;;;;;14.03;10.73;;;18.10;99.90;;;;;;5078833;28;20496;-61
2023/10/12 12:10:23;;;;;;;15.00;10.13;;;18.10;99.90;;;;;;5078694;28;20491;-61
2023/10/12 12:12:52;;;;;;;13.10;10.10;;;18.00;99.90;;;;;;5078752;28;20882;-62
2023/10/12 12:15:24;;;;;;;12.23;9.70;;;18.10;99.90;;;;;;5078574;28;20458;-62
2023/10/12 12:17:52;;;;;;;15.13;10.70;;;18.20;99.90;;;;;;5078866;28;20435;-62
2023/10/12 12:20:22;;;;;;;16.40;10.77;;;18.20;99.90;;;;;;5078848;28;20464;-62
2023/10/12 12:22:50;;;;;;;12.27;9.90;;;18.30;99.90;;;;;;5078139;28;20500;-62
2023/10/12 12:25:31;;;;;;;13.33;10.77;;;18.30;99.90;;;;;;5078482;28;20465;-62
2023/10/12 12:28:02;;;;;;;14.17;11.10;;;18.30;99.90;;;;;;5078228;28;20461;-62
2023/10/12 12:30:32;;;;;;;14.10;10.47;;;18.30;99.90;;;;;;5078411;28;20461;-62
2023/10/12 12:33:00;;;;;;;14.33;10.90;;;18.30;99.90;;;;;;5077330;28;20853;-62
2023/10/12 12:35:29;;;;;;;11.50;10.13;;;18.30;74.60;;;;;;5078471;28;20480;-62
2023/10/12 12:38:00;;;;;;;14.83;10.73;;;18.30;99.90;;;;;;5078442;28;20458;-62
2023/10/12 12:40:30;;;;;;;16.70;10.43;;;18.40;99.90;;;;;;5078212;28;20453;-62
2023/10/12 12:42:58;;;;;;;13.30;10.17;;;18.40;99.90;;;;;;5076940;28;20511;-62
2023/10/12 12:45:26;;;;;;;12.23;10.40;;;18.40;99.90;;;;;;5077497;28;20465;-62
2023/10/12 12:47:56;;;;;;;12.03;9.43;;;18.40;62.60;;;;;;5076823;28;20462;-62
2023/10/12 12:50:23;;;;;;;14.20;10.63;;;18.50;68.20;;;;;;5075809;28;20461;-62
2023/10/12 12:52:51;;;;;;;12.13;10.00;;;18.40;21.70;;;;;;5077207;28;20805;-62
2023/10/12 12:55:21;;;;;;;13.57;10.03;;;18.30;27.90;;;;;;5077124;28;20539;-62
2023/10/12 12:57:48;;;;;;;15.77;10.10;;;18.50;44.50;;;;;;5077262;28;20870;-62
2023/10/12 13:00:20;;;;;;;12.33;9.70;;;18.50;1.00;;;;;;5078181;28;20753;-62
2023/10/12 13:02:47;;;;;;;17.07;10.33;;;18.50;13.70;;;;;;5076152;28;20921;-61
2023/10/12 13:05:16;;;;;;;12.50;9.53;;;18.50;28.40;;;;;;5077014;28;20544;-62
2023/10/12 13:07:45;;;;;;;10.87;9.40;;;18.70;16.30;;;;;;5077597;28;20463;-62
2023/10/12 13:10:13;;;;;;;15.73;9.60;;;18.80;1.00;;;;;;5077648;28;20933;-62
2023/10/12 13:12:41;;;;;;;12.93;9.20;;;18.80;1.00;;;;;;5076429;28;20511;-61
2023/10/12 13:15:11;;;;;;;11.93;9.20;;;18.70;1.00;;;;;;5076691;28;20485;-61
2023/10/12 13:17:38;;;;;;;15.97;10.00;;;18.70;1.00;;;;;;5075601;28;20462;-61
2023/10/12 13:20:17;;;;;;;14.97;9.20;;;18.60;4.70;;;;;;5075354;28;20776;-62
2023/10/12 13:22:46;;;;;;;12.43;8.90;;;18.60;38.30;;;;;;5076118;28;20493;-61
2023/10/12 13:25:14;;;;;;;14.63;9.70;;;18.60;30.40;;;;;;5076422;28;20542;-61
2023/10/12 13:27:42;;;;;;;13.47;9.20;;;18.50;6.30;;;;;;5076922;28;20838;-60
2023/10/12 13:30:11;;;;;;;11.47;9.90;;;18.50;20.70;;;;;;5075914;28;20461;-61
2023/10/12 13:32:38;;;;;;;13.93;9.27;;;18.40;45.50;;;;;;5076928;28;20465;-61